Time;durP1;ratioP1;P1;durP2;ratioP2;P2;SDS_P1;SDS_P2;PMS_P1;PMS_P2;Temp;Humidity;BMP_temperature;BMP_pressure;BME280_temperature;BME280_humidity;BME280_pressure;Samples;Min_cycle;Max_cycle;Signal;HPM_P1;HPM_P2
2023/09/27 00:01:59;;;;;;;9.23;6.90;;;;;;;15.63;75.23;101891.47;5030835;28;20021;-68
2023/09/27 00:04:24;;;;;;;7.40;6.18;;;;;;;15.50;75.60;101897.31;5032290;28;20095;-68
2023/09/27 00:06:50;;;;;;;6.50;5.90;;;;;;;15.46;75.91;101902.84;5030304;28;20086;-68
2023/09/27 00:09:15;;;;;;;8.77;7.88;;;;;;;15.37;77.62;101904.09;5029178;28;20087;-68
2023/09/27 00:11:41;;;;;;;9.02;8.13;;;;;;;15.26;76.84;101904.56;5034080;28;20048;-68
2023/09/27 00:14:06;;;;;;;8.98;7.80;;;;;;;15.23;78.22;101914.50;5031446;28;20032;-68
2023/09/27 00:16:32;;;;;;;7.93;7.13;;;;;;;15.12;78.23;101904.31;5029407;28;20033;-67
2023/09/27 00:18:57;;;;;;;8.82;7.15;;;;;;;15.01;78.51;101906.53;5030832;28;20451;-68
2023/09/27 00:21:23;;;;;;;8.40;7.35;;;;;;;14.96;78.80;101908.53;5032114;28;20032;-67
2023/09/27 00:23:48;;;;;;;13.00;8.55;;;;;;;14.90;79.58;101906.13;5031016;28;20060;-67
2023/09/27 00:26:13;;;;;;;8.75;7.85;;;;;;;14.80;79.64;101906.50;5033064;28;20075;-67
2023/09/27 00:28:39;;;;;;;9.63;7.55;;;;;;;14.84;79.44;101911.69;5026785;28;20024;-68
2023/09/27 00:31:04;;;;;;;8.57;6.75;;;;;;;14.83;79.36;101907.28;5030979;28;20020;-68
2023/09/27 00:33:29;;;;;;;9.98;7.10;;;;;;;14.85;78.88;101905.44;5031407;28;20475;-67
2023/09/27 00:35:55;;;;;;;9.73;7.57;;;;;;;14.89;79.42;101896.41;5038146;28;20045;-68
2023/09/27 00:38:20;;;;;;;8.82;7.20;;;;;;;14.88;79.08;101905.31;5035500;28;20544;-67
2023/09/27 00:40:48;;;;;;;7.18;6.50;;;;;;;14.82;79.32;101902.91;5037797;28;21260;-67
2023/09/27 00:43:27;;;;;;;6.82;6.07;;;;;;;14.82;78.97;101909.09;5034636;28;20029;-67
2023/09/27 00:46:06;;;;;;;8.30;6.78;;;;;;;14.72;79.57;101905.06;5031958;28;20036;-67
2023/09/27 00:48:34;;;;;;;7.22;5.50;;;;;;;14.67;78.93;101902.59;5035428;28;20124;-67
2023/09/27 00:51:00;;;;;;;9.00;6.28;;;;;;;14.79;77.98;101899.44;5033521;28;20504;-67
2023/09/27 00:53:29;;;;;;;10.70;7.57;;;;;;;14.86;78.74;101902.72;5035686;28;20049;-67
2023/09/27 00:55:55;;;;;;;10.30;8.10;;;;;;;14.72;79.18;101905.06;5043554;28;20025;-67
2023/09/27 00:58:21;;;;;;;10.63;7.80;;;;;;;14.65;79.86;101899.13;5041188;28;20040;-68
2023/09/27 01:00:49;;;;;;;11.25;8.02;;;;;;;14.60;79.50;101887.81;5034250;28;20122;-68
2023/09/27 01:03:15;;;;;;;8.45;7.03;;;;;;;14.64;79.20;101896.50;5042175;28;20031;-67
2023/09/27 01:05:41;;;;;;;7.22;6.20;;;;;;;14.56;79.32;101894.19;5047918;28;20032;-67
2023/09/27 01:08:07;;;;;;;8.85;6.93;;;;;;;14.43;79.11;101891.09;5039328;28;20095;-67
2023/09/27 01:10:34;;;;;;;7.72;6.68;;;;;;;14.40;79.80;101899.19;5044009;28;20032;-67
2023/09/27 01:12:59;;;;;;;8.70;6.20;;;;;;;14.40;79.64;101898.31;5040624;28;20037;-67
2023/09/27 01:15:25;;;;;;;8.52;7.70;;;;;;;14.39;79.99;101891.28;5046977;28;20047;-67
2023/09/27 01:17:55;;;;;;;6.97;6.28;;;;;;;14.43;79.40;101903.53;5045535;28;20032;-67
2023/09/27 01:20:22;;;;;;;7.63;6.43;;;;;;;14.33;79.36;101896.84;5050898;28;20053;-67
2023/09/27 01:23:02;;;;;;;8.40;7.40;;;;;;;14.28;80.47;101894.38;5049435;28;20021;-67
2023/09/27 01:25:30;;;;;;;7.68;6.15;;;;;;;14.22;80.12;101881.28;5045168;28;20104;-68
2023/09/27 01:28:03;;;;;;;8.73;7.45;;;;;;;14.22;80.35;101881.28;5037918;28;20488;-67
2023/09/27 01:30:32;;;;;;;8.60;6.97;;;;;;;14.29;78.55;101869.50;5032838;28;20441;-68
2023/09/27 01:33:05;;;;;;;8.07;6.80;;;;;;;14.41;78.12;101865.47;5035482;28;20563;-68
2023/09/27 01:35:31;;;;;;;9.13;7.15;;;;;;;14.49;78.33;101855.41;5033298;28;20033;-68
2023/09/27 01:37:57;;;;;;;9.38;7.18;;;;;;;14.52;78.24;101860.63;5037392;28;20476;-68
2023/09/27 01:40:26;;;;;;;6.90;6.22;;;;;;;14.56;77.57;101861.38;5034895;28;20070;-67
2023/09/27 01:42:52;;;;;;;9.02;7.93;;;;;;;14.58;77.77;101851.53;5035171;28;20044;-67
2023/09/27 01:45:17;;;;;;;9.45;8.13;;;;;;;14.59;77.47;101851.47;5043951;28;20028;-67
2023/09/27 01:47:42;;;;;;;8.13;7.22;;;;;;;14.58;77.31;101849.72;5038694;28;20037;-67
2023/09/27 01:50:08;;;;;;;11.88;9.55;;;;;;;14.57;79.42;101847.16;5038445;28;20036;-67
2023/09/27 01:52:33;;;;;;;8.98;8.07;;;;;;;14.54;79.43;101858.75;5042644;28;20106;-67
2023/09/27 01:54:59;;;;;;;8.55;7.07;;;;;;;14.53;78.07;101865.03;5045356;28;20170;-68
2023/09/27 01:57:24;;;;;;;8.40;7.20;;;;;;;14.51;77.86;101864.22;5038956;28;20079;-67
2023/09/27 01:59:49;;;;;;;8.00;6.30;;;;;;;14.48;77.81;101869.66;5043491;28;20536;-67
2023/09/27 02:02:15;;;;;;;6.18;5.57;;;;;;;14.47;77.59;101871.44;5036907;28;20029;-67
2023/09/27 02:04:40;;;;;;;6.05;5.55;;;;;;;14.42;77.98;101875.22;5050544;28;20044;-67
2023/09/27 02:07:05;;;;;;;11.38;8.65;;;;;;;14.34;79.44;101869.31;5032885;28;20835;-67
2023/09/27 02:09:30;;;;;;;8.75;7.93;;;;;;;14.25;79.71;101866.06;5016850;28;20072;-67
2023/09/27 02:11:56;;;;;;;8.43;7.57;;;;;;;14.13;80.49;101860.38;5033568;28;20384;-67
2023/09/27 02:14:21;;;;;;;8.57;7.65;;;;;;;14.09;80.16;101856.13;5042716;28;20036;-67
2023/09/27 02:16:47;;;;;;;10.68;6.70;;;;;;;14.11;80.03;101860.44;5041440;28;20060;-67
2023/09/27 02:19:13;;;;;;;7.68;6.88;;;;;;;14.10;80.30;101864.03;5035214;28;21206;-67
2023/09/27 02:21:39;;;;;;;7.30;6.57;;;;;;;13.98;79.89;101861.81;5046899;28;20099;-67
2023/09/27 02:24:05;;;;;;;11.68;8.43;;;;;;;13.89;81.16;101862.16;5041636;28;20028;-67
2023/09/27 02:26:31;;;;;;;6.20;5.60;;;;;;;13.90;80.26;101863.94;5039903;28;20488;-68
2023/09/27 02:28:56;;;;;;;6.65;5.60;;;;;;;13.98;79.95;101861.81;5040514;28;20032;-67
2023/09/27 02:31:21;;;;;;;7.53;6.13;;;;;;;13.96;81.11;101869.00;5042531;28;20029;-68
2023/09/27 02:33:47;;;;;;;6.97;6.35;;;;;;;13.96;80.72;101861.03;5044369;28;20032;-67
2023/09/27 02:36:12;;;;;;;5.57;5.07;;;;;;;13.98;80.00;101865.34;5048397;28;20016;-67
2023/09/27 02:38:37;;;;;;;5.70;5.20;;;;;;;13.99;79.31;101874.22;5040517;28;20033;-68
2023/09/27 02:41:03;;;;;;;5.75;5.25;;;;;;;14.01;79.73;101870.56;5045619;28;20017;-67
2023/09/27 02:43:29;;;;;;;5.32;4.85;;;;;;;13.98;80.16;101868.00;5038129;28;20586;-67
2023/09/27 02:45:54;;;;;;;5.00;4.50;;;;;;;13.95;80.47;101870.81;5039318;28;20032;-67
2023/09/27 02:48:19;;;;;;;5.47;4.97;;;;;;;13.93;80.68;101866.44;5039762;28;20094;-67
2023/09/27 02:50:49;;;;;;;5.50;4.95;;;;;;;13.88;80.88;101863.09;5038709;28;20024;-67
2023/09/27 02:53:14;;;;;;;5.57;4.82;;;;;;;13.94;80.14;101871.72;5045281;28;20388;-67
2023/09/27 02:55:39;;;;;;;4.60;4.20;;;;;;;13.99;80.03;101872.41;5031330;28;20048;-67
2023/09/27 02:58:05;;;;;;;6.18;5.22;;;;;;;13.99;79.71;101876.88;5039432;28;20029;-67
2023/09/27 03:00:30;;;;;;;6.57;5.60;;;;;;;13.96;79.66;101871.66;5038178;28;20080;-67
2023/09/27 03:02:56;;;;;;;5.13;4.63;;;;;;;13.84;80.57;101866.78;5040793;28;20539;-67
2023/09/27 03:05:21;;;;;;;6.13;4.68;;;;;;;13.75;81.09;101868.84;5041497;28;20124;-67
2023/09/27 03:07:48;;;;;;;4.45;4.15;;;;;;;13.74;81.22;101868.94;5036919;28;20040;-67
2023/09/27 03:10:15;;;;;;;5.18;4.60;;;;;;;13.78;81.13;101862.56;5037181;28;20124;-67
2023/09/27 03:12:41;;;;;;;5.97;4.88;;;;;;;13.85;80.33;101861.44;5038651;28;20033;-67
2023/09/27 03:15:11;;;;;;;6.32;5.53;;;;;;;13.85;79.82;101863.19;5042879;28;20110;-67
2023/09/27 03:17:37;;;;;;;7.70;5.68;;;;;;;13.85;79.77;101863.19;5041056;28;20203;-67
2023/09/27 03:20:07;;;;;;;7.65;5.18;;;;;;;13.88;79.49;101866.63;5042539;28;20021;-67
2023/09/27 03:22:32;;;;;;;7.15;6.43;;;;;;;13.85;80.30;101860.53;5039146;28;20059;-67
2023/09/27 03:24:57;;;;;;;5.60;5.05;;;;;;;13.85;80.13;101863.19;5039421;28;20481;-67
2023/09/27 03:27:22;;;;;;;5.47;4.88;;;;;;;13.77;80.61;101867.03;5044108;28;20029;-67
2023/09/27 03:29:48;;;;;;;6.70;6.05;;;;;;;13.67;81.06;101865.63;5041787;28;20112;-67
2023/09/27 03:32:13;;;;;;;9.68;8.13;;;;;;;13.56;81.44;101877.56;5043685;28;20029;-68
2023/09/27 03:34:38;;;;;;;7.00;5.88;;;;;;;13.56;81.19;101888.19;5031553;28;20039;-68
2023/09/27 03:37:04;;;;;;;6.15;5.55;;;;;;;13.60;80.86;101882.72;5035207;28;21795;-68
2023/09/27 03:39:35;;;;;;;7.28;3.78;;;;;;;13.57;81.57;101885.50;5039029;28;20032;-68
2023/09/27 03:42:01;;;;;;;3.90;3.55;;;;;;;13.44;82.14;101882.41;5040611;28;20025;-67
2023/09/27 03:44:27;;;;;;;3.50;3.20;;;;;;;13.39;82.22;101889.69;5036620;28;20034;-68
2023/09/27 03:46:52;;;;;;;3.35;2.90;;;;;;;13.42;81.60;101892.19;5041895;28;20047;-68
2023/09/27 03:49:17;;;;;;;20.42;4.50;;;;;;;13.38;82.63;101898.56;5038600;28;20087;-68
2023/09/27 03:51:43;;;;;;;27.38;4.40;;;;;;;13.30;83.05;101889.13;5035637;28;20044;-68
2023/09/27 03:54:09;;;;;;;5.00;4.50;;;;;;;13.32;81.30;101880.16;5036182;28;20713;-67
2023/09/27 03:56:34;;;;;;;5.30;4.80;;;;;;;13.41;79.83;101873.69;5038109;28;20069;-69
2023/09/27 03:59:00;;;;;;;5.50;5.00;;;;;;;13.42;80.40;101876.25;5035753;28;20017;-68
2023/09/27 04:01:25;;;;;;;6.30;5.70;;;;;;;13.43;80.19;101871.81;5035382;28;22109;-68
2023/09/27 04:03:50;;;;;;;6.03;5.38;;;;;;;13.47;79.86;101873.44;5045456;28;20103;-68
2023/09/27 04:06:15;;;;;;;5.15;4.70;;;;;;;13.49;78.46;101883.13;5036013;28;20036;-68
2023/09/27 04:08:41;;;;;;;4.75;4.35;;;;;;;13.45;77.70;101885.94;5046406;28;20052;-68
2023/09/27 04:11:08;;;;;;;4.88;4.38;;;;;;;13.38;77.93;101895.91;5038175;28;21132;-68
2023/09/27 04:13:33;;;;;;;5.78;5.22;;;;;;;13.34;78.91;101909.34;5039433;28;20159;-67
2023/09/27 04:15:59;;;;;;;6.65;6.05;;;;;;;13.28;79.69;101911.28;5049424;28;20563;-68
2023/09/27 04:18:24;;;;;;;6.28;5.43;;;;;;;13.27;80.16;101914.84;5044362;28;20036;-68
2023/09/27 04:20:50;;;;;;;5.60;5.10;;;;;;;13.28;80.02;101913.06;5048499;28;20026;-68
2023/09/27 04:23:15;;;;;;;6.40;5.60;;;;;;;13.30;78.26;101897.97;5044253;28;20012;-67
2023/09/27 04:25:41;;;;;;;5.80;5.30;;;;;;;13.28;78.43;101886.50;5047308;28;20491;-67
2023/09/27 04:28:06;;;;;;;7.07;5.38;;;;;;;13.26;79.00;101894.53;5039996;28;20422;-67
2023/09/27 04:30:32;;;;;;;7.13;5.78;;;;;;;13.26;79.67;101905.16;5041817;28;20046;-69
2023/09/27 04:32:57;;;;;;;6.85;6.15;;;;;;;13.27;79.55;101908.69;5044413;28;20373;-68
2023/09/27 04:35:22;;;;;;;5.72;5.22;;;;;;;13.26;79.50;101915.78;5043005;28;20032;-68
2023/09/27 04:37:48;;;;;;;7.15;6.45;;;;;;;13.19;79.37;101927.50;5047634;28;20099;-69
2023/09/27 04:40:14;;;;;;;51.53;8.60;;;;;;;13.09;81.19;101922.53;5039351;28;20048;-68
2023/09/27 04:42:44;;;;;;;7.05;6.35;;;;;;;13.05;81.34;101918.25;5034718;28;20029;-69
2023/09/27 04:45:11;;;;;;;6.63;5.93;;;;;;;13.05;81.13;101927.06;5045282;28;20021;-68
2023/09/27 04:47:37;;;;;;;7.85;6.70;;;;;;;13.05;81.72;101932.38;5031637;28;20598;-68
2023/09/27 04:50:03;;;;;;;7.63;5.97;;;;;;;13.10;80.93;101930.44;5036069;28;20043;-69
2023/09/27 04:52:28;;;;;;;6.43;5.82;;;;;;;13.14;79.62;101909.97;5047460;28;20537;-69
2023/09/27 04:54:57;;;;;;;6.53;5.93;;;;;;;13.12;79.97;101880.84;5037733;28;20067;-69
2023/09/27 04:57:23;;;;;;;5.88;5.38;;;;;;;13.12;78.81;101883.50;5032962;28;20033;-70
2023/09/27 04:59:51;;;;;;;8.52;6.00;;;;;;;13.09;79.50;101891.56;5039633;28;20075;-69
2023/09/27 05:02:16;;;;;;;6.82;5.82;;;;;;;13.10;79.97;101905.69;5038778;28;20028;-69
2023/09/27 05:04:42;;;;;;;9.80;8.00;;;;;;;12.99;81.41;101911.38;5041111;28;20021;-69
2023/09/27 05:07:07;;;;;;;9.85;6.57;;;;;;;13.01;80.88;101906.88;5039146;28;20049;-69
2023/09/27 05:09:32;;;;;;;7.03;5.70;;;;;;;13.04;80.59;101906.78;5027545;28;20123;-68
2023/09/27 05:11:58;;;;;;;8.15;6.40;;;;;;;13.06;80.49;101904.09;5047336;28;20032;-68
2023/09/27 05:14:23;;;;;;;7.45;6.38;;;;;;;13.07;79.95;101909.34;5038354;28;20037;-68
2023/09/27 05:16:49;;;;;;;6.32;5.72;;;;;;;13.07;80.10;101914.63;5035541;28;20079;-68
2023/09/27 05:19:14;;;;;;;6.45;5.85;;;;;;;13.00;80.22;101903.34;5038489;28;20481;-67
2023/09/27 05:21:39;;;;;;;7.07;6.38;;;;;;;13.05;80.39;101881.94;5035490;28;20032;-68
2023/09/27 05:24:06;;;;;;;7.93;6.00;;;;;;;13.08;79.94;101888.97;5037693;28;20444;-67
2023/09/27 05:26:31;;;;;;;7.45;6.55;;;;;;;13.11;79.62;101884.41;5042106;28;21018;-68
2023/09/27 05:28:56;;;;;;;8.95;6.03;;;;;;;13.17;79.58;101892.16;5042930;28;20080;-68
2023/09/27 05:31:22;;;;;;;7.18;5.88;;;;;;;13.17;78.79;101878.88;5040464;28;20497;-67
2023/09/27 05:33:48;;;;;;;9.10;6.70;;;;;;;13.16;79.29;101890.44;5042624;28;20043;-67
2023/09/27 05:36:13;;;;;;;10.60;7.40;;;;;;;13.08;80.16;101886.31;5045731;28;20034;-67
2023/09/27 05:38:39;;;;;;;14.23;7.35;;;;;;;13.03;80.54;101887.31;5046942;28;20571;-68
2023/09/27 05:41:04;;;;;;;9.15;8.23;;;;;;;12.99;81.46;101887.47;5053461;28;20117;-67
2023/09/27 05:43:29;;;;;;;9.90;7.20;;;;;;;13.00;80.75;101894.50;5040123;28;20481;-68
2023/09/27 05:45:56;;;;;;;12.55;6.53;;;;;;;13.09;80.59;101885.38;5042351;28;20033;-67
2023/09/27 05:48:22;;;;;;;7.15;6.20;;;;;;;13.15;79.40;101886.06;5035684;28;20024;-67
2023/09/27 05:50:47;;;;;;;8.15;6.07;;;;;;;13.18;79.31;101880.63;5035350;28;20131;-67
2023/09/27 05:53:12;;;;;;;7.95;6.28;;;;;;;13.20;79.06;101880.59;5039012;28;20035;-67
2023/09/27 05:55:39;;;;;;;8.60;5.75;;;;;;;13.24;78.46;101877.81;5021307;28;20388;-67
2023/09/27 05:58:05;;;;;;;8.10;6.82;;;;;;;13.27;78.96;101880.34;5047223;28;20067;-67
2023/09/27 06:00:37;;;;;;;12.23;7.18;;;;;;;13.25;78.15;101874.22;5047280;28;20021;-67
2023/09/27 06:03:04;;;;;;;7.90;5.45;;;;;;;13.28;78.58;101873.22;5043042;28;20021;-67
2023/09/27 06:05:30;;;;;;;13.57;6.32;;;;;;;13.34;78.29;101866.84;5037829;28;20558;-68
2023/09/27 06:07:55;;;;;;;9.48;6.60;;;;;;;13.34;79.41;101877.47;5037395;28;20123;-68
2023/09/27 06:10:22;;;;;;;12.25;7.35;;;;;;;13.24;79.96;101876.91;5041562;28;20037;-67
2023/09/27 06:12:47;;;;;;;11.98;6.85;;;;;;;13.23;80.21;101876.03;5021523;28;20095;-68
2023/09/27 06:15:13;;;;;;;10.35;7.72;;;;;;;13.22;80.06;101873.44;5042398;28;20116;-67
2023/09/27 06:17:38;;;;;;;10.73;7.05;;;;;;;13.24;80.21;101867.19;5040660;28;20028;-68
2023/09/27 06:20:05;;;;;;;8.60;7.57;;;;;;;13.30;81.12;101867.88;5039807;28;20028;-68
2023/09/27 06:22:30;;;;;;;9.82;6.90;;;;;;;13.32;81.13;101874.00;5038968;28;20392;-68
2023/09/27 06:24:56;;;;;;;12.82;6.35;;;;;;;13.38;80.63;101887.06;5037124;28;20025;-68
2023/09/27 06:27:22;;;;;;;12.90;7.35;;;;;;;13.34;80.78;101880.13;5039927;28;20033;-68
2023/09/27 06:29:47;;;;;;;8.75;7.03;;;;;;;13.44;80.61;101871.78;5036506;28;20473;-68
2023/09/27 06:32:12;;;;;;;8.88;7.00;;;;;;;13.58;80.23;101865.97;5035129;28;20028;-67
2023/09/27 06:34:38;;;;;;;11.00;7.22;;;;;;;13.77;80.20;101871.47;5032562;28;20370;-68
2023/09/27 06:37:03;;;;;;;8.63;6.75;;;;;;;13.77;80.81;101864.38;5047166;28;20028;-68
2023/09/27 06:39:29;;;;;;;12.75;7.18;;;;;;;13.84;80.94;101867.66;5040360;28;20040;-68
2023/09/27 06:41:55;;;;;;;10.98;8.02;;;;;;;13.89;80.93;101859.50;5046208;28;20501;-68
2023/09/27 06:44:20;;;;;;;11.68;7.43;;;;;;;13.99;81.72;101859.13;5040585;28;20103;-67
2023/09/27 06:46:46;;;;;;;13.93;10.48;;;;;;;14.16;82.54;101863.78;5038869;28;20377;-68
2023/09/27 06:49:15;;;;;;;13.40;10.80;;;;;;;14.35;82.91;101863.91;5037030;28;20021;-68
2023/09/27 06:51:40;;;;;;;14.20;11.07;;;;;;;14.53;82.39;101873.00;5040248;28;20478;-68
2023/09/27 06:54:06;;;;;;;12.88;10.27;;;;;;;14.69;81.03;101868.81;5044617;28;20156;-68
2023/09/27 06:56:31;;;;;;;16.02;10.40;;;;;;;14.79;80.91;101875.47;5031817;28;20025;-67
2023/09/27 06:58:57;;;;;;;14.05;11.05;;;;;;;14.89;81.17;101881.28;5034121;28;20288;-67
2023/09/27 07:01:24;;;;;;;14.13;11.02;;;;;;;14.99;82.18;101892.44;5039690;28;20083;-68
2023/09/27 07:03:49;;;;;;;12.40;10.40;;;;;;;15.01;80.48;101883.44;5038562;28;20044;-68
2023/09/27 07:06:15;;;;;;;12.82;10.73;;;;;;;15.10;80.38;101875.97;5037273;28;20041;-68
2023/09/27 07:08:40;;;;;;;12.95;11.25;;;;;;;15.17;81.08;101878.34;5042212;28;20445;-68
2023/09/27 07:11:07;;;;;;;16.88;11.82;;;;;;;15.23;81.35;101872.72;5038428;28;20536;-68
2023/09/27 07:13:34;;;;;;;12.55;11.25;;;;;;;15.25;81.54;101876.22;5045435;28;20078;-67
2023/09/27 07:16:01;;;;;;;13.15;11.10;;;;;;;15.26;81.68;101880.59;5029854;28;20025;-68
2023/09/27 07:18:27;;;;;;;15.43;12.50;;;;;;;15.26;83.17;101875.28;5038984;28;20083;-67
2023/09/27 07:20:52;;;;;;;15.25;12.77;;;;;;;15.26;82.91;101883.25;5027334;28;20423;-68
2023/09/27 07:23:18;;;;;;;14.05;11.20;;;;;;;15.30;82.00;101892.00;5044502;28;20068;-68
2023/09/27 07:25:44;;;;;;;15.80;12.40;;;;;;;15.37;81.74;101888.13;5049972;28;20127;-69
2023/09/27 07:28:10;;;;;;;13.75;11.30;;;;;;;15.43;81.89;101890.50;5036486;28;20119;-67
2023/09/27 07:30:35;;;;;;;14.68;12.50;;;;;;;15.44;82.56;101896.72;5041694;28;20057;-67
2023/09/27 07:33:09;;;;;;;16.17;11.77;;;;;;;15.47;81.58;101899.25;5038163;28;20392;-68
2023/09/27 07:35:35;;;;;;;15.05;11.40;;;;;;;15.58;81.73;101897.00;5033410;28;20036;-67
2023/09/27 07:38:01;;;;;;;14.25;11.57;;;;;;;15.64;81.44;101886.06;5034409;28;20500;-67
2023/09/27 07:40:26;;;;;;;15.35;11.57;;;;;;;15.71;80.27;101887.53;5039632;28;20021;-67
2023/09/27 07:42:52;;;;;;;16.60;12.57;;;;;;;15.78;80.85;101893.47;5036513;28;20098;-67
2023/09/27 07:45:28;;;;;;;16.25;12.52;;;;;;;15.90;79.80;101892.03;5052123;28;20024;-68
2023/09/27 07:47:54;;;;;;;16.52;12.80;;;;;;;16.02;79.25;101886.13;5040047;28;20578;-68
2023/09/27 07:50:27;;;;;;;17.27;13.95;;;;;;;16.19;79.76;101883.56;5053443;28;21331;-68
2023/09/27 07:52:57;;;;;;;13.93;12.57;;;;;;;16.35;79.23;101885.50;5048356;28;20388;-68
2023/09/27 07:55:22;;;;;;;19.45;13.77;;;;;;;16.59;77.91;101885.16;5044617;28;20219;-68
2023/09/27 07:57:49;;;;;;;13.43;12.02;;;;;;;16.87;76.76;101880.31;5043537;28;20134;-68
2023/09/27 08:00:15;;;;;;;15.30;13.60;;;;;;;17.03;76.51;101894.66;5053846;28;20530;-68
2023/09/27 08:02:42;;;;;;;15.43;13.82;;;;;;;17.25;76.67;101891.72;5038658;28;20053;-68
2023/09/27 08:05:10;;;;;;;17.52;13.30;;;;;;;17.49;74.72;101890.47;5041249;28;20049;-68
2023/09/27 08:07:37;;;;;;;16.10;13.90;;;;;;;17.56;74.39;101885.66;5039974;28;20049;-68
2023/09/27 08:10:03;;;;;;;14.18;12.77;;;;;;;17.91;73.89;101882.97;5051949;28;20024;-68
2023/09/27 08:12:31;;;;;;;13.70;12.30;;;;;;;18.33;72.14;101883.25;5045823;28;20030;-68
2023/09/27 08:14:59;;;;;;;18.70;12.75;;;;;;;18.73;71.20;101897.09;5044282;28;20018;-68
2023/09/27 08:17:25;;;;;;;15.68;11.88;;;;;;;19.01;69.04;101903.53;5041655;28;20152;-68
2023/09/27 08:19:51;;;;;;;12.75;11.45;;;;;;;19.17;68.52;101899.00;5057825;28;20746;-69
2023/09/27 08:22:16;;;;;;;14.10;12.43;;;;;;;19.34;68.14;101897.97;5056643;28;20020;-68
2023/09/27 08:24:42;;;;;;;13.35;11.90;;;;;;;19.44;68.01;101907.19;5051853;28;20442;-69
2023/09/27 08:27:07;;;;;;;13.13;11.82;;;;;;;19.59;67.41;101908.94;5053044;28;20056;-68
2023/09/27 08:29:32;;;;;;;15.18;12.50;;;;;;;19.91;66.68;101918.66;5053051;28;20028;-68
2023/09/27 08:31:58;;;;;;;17.48;12.30;;;;;;;20.24;65.63;101927.31;5046981;28;20096;-69
2023/09/27 08:34:23;;;;;;;13.40;11.85;;;;;;;20.67;63.45;101927.25;5046662;28;20101;-69
2023/09/27 08:36:48;;;;;;;13.13;11.63;;;;;;;20.92;63.27;101917.56;5038964;28;20112;-68
2023/09/27 08:39:14;;;;;;;13.68;12.07;;;;;;;21.19;62.81;101918.41;5044130;28;20017;-69
2023/09/27 08:41:41;;;;;;;15.38;12.00;;;;;;;21.35;60.96;101911.03;5049922;28;20074;-69
2023/09/27 08:44:07;;;;;;;11.45;10.27;;;;;;;21.71;59.35;101917.53;5041496;28;20032;-68
2023/09/27 08:46:34;;;;;;;11.75;10.55;;;;;;;22.13;59.71;101926.28;5044935;28;20082;-68
2023/09/27 08:49:01;;;;;;;12.93;11.32;;;;;;;22.57;58.04;101919.47;5056999;28;20515;-68
2023/09/27 08:51:28;;;;;;;12.10;10.88;;;;;;;22.83;56.99;101918.41;5043964;28;20048;-68
2023/09/27 08:53:54;;;;;;;12.07;10.88;;;;;;;22.94;57.38;101908.69;5049906;28;20029;-68
2023/09/27 08:56:20;;;;;;;12.50;10.95;;;;;;;23.05;57.44;101901.50;5041780;28;20454;-68
2023/09/27 08:58:48;;;;;;;12.57;10.85;;;;;;;23.35;57.05;101903.69;5038226;28;20025;-69
2023/09/27 09:01:14;;;;;;;11.13;10.00;;;;;;;23.82;56.40;101903.69;5048107;28;20112;-69
2023/09/27 09:03:41;;;;;;;13.88;10.38;;;;;;;24.50;52.67;101899.13;5042566;28;20117;-68
2023/09/27 09:06:12;;;;;;;10.43;9.23;;;;;;;25.20;52.05;101901.38;5044612;28;20087;-68
2023/09/27 09:08:44;;;;;;;14.52;11.02;;;;;;;25.92;50.15;101909.53;5042255;28;20060;-68
2023/09/27 09:11:10;;;;;;;;;;;;;;;26.59;51.58;101910.78;5038213;28;20044;-68
2023/09/27 09:13:56;;;;;;;14.50;9.48;;;;;;;26.72;50.78;101902.41;5039680;28;19986;-69
2023/09/27 09:16:23;;;;;;;13.35;10.43;;;;;;;25.86;50.14;101893.81;5019838;28;20112;-68
2023/09/27 09:18:54;;;;;;;14.95;10.07;;;;;;;25.75;50.68;101891.16;5042042;28;20017;-68
2023/09/27 09:21:20;;;;;;;13.32;10.05;;;;;;;25.57;50.91;101887.38;5041268;28;20063;-69
2023/09/27 09:23:49;;;;;;;10.57;9.45;;;;;;;25.57;50.80;101890.06;5036461;28;20552;-69
2023/09/27 09:26:27;;;;;;;13.65;9.98;;;;;;;25.25;53.17;101893.72;5019964;28;20029;-69
2023/09/27 09:28:56;;;;;;;15.52;11.40;;;;;;;24.39;53.27;101890.06;5047932;28;20037;-68
2023/09/27 09:31:23;;;;;;;12.27;10.85;;;;;;;24.16;54.45;101878.41;5038601;28;20128;-69
2023/09/27 09:34:07;;;;;;;11.85;10.13;;;;;;;24.35;55.57;101879.59;5056864;28;20787;-69
2023/09/27 09:36:34;;;;;;;12.60;11.05;;;;;;;24.57;54.00;101884.09;5046149;28;20370;-69
2023/09/27 09:39:13;;;;;;;11.07;9.98;;;;;;;25.04;53.32;101884.66;5051307;28;20020;-69
2023/09/27 09:41:46;;;;;;;10.13;9.13;;;;;;;24.92;53.54;101871.19;5045865;28;20484;-69
2023/09/27 09:44:23;;;;;;;10.40;9.40;;;;;;;24.65;54.10;101868.97;5039493;28;20043;-69
2023/09/27 09:46:49;;;;;;;11.75;9.82;;;;;;;24.61;53.04;101872.06;5043249;28;20053;-69
2023/09/27 09:49:15;;;;;;;11.48;9.02;;;;;;;25.04;51.81;101869.31;5047250;28;20163;-69
2023/09/27 09:51:46;;;;;;;10.88;9.70;;;;;;;26.12;50.58;101867.13;5040937;28;20078;-68
2023/09/27 09:54:16;;;;;;;11.73;9.68;;;;;;;27.35;47.19;101853.09;5053659;28;20087;-69
2023/09/27 09:56:43;;;;;;;11.82;10.30;;;;;;;28.02;45.52;101845.72;5034704;28;20013;-69
2023/09/27 09:59:11;;;;;;;13.05;9.77;;;;;;;28.43;44.39;101847.06;5031997;28;20138;-69
2023/09/27 10:01:38;;;;;;;13.68;11.38;;;;;;;29.84;40.84;101847.00;5034442;28;20064;-69
2023/09/27 10:04:05;;;;;;;13.88;11.48;;;;;;;30.79;38.09;101839.50;5042702;28;20044;-69
2023/09/27 10:06:32;;;;;;;10.60;9.43;;;;;;;31.81;37.02;101838.00;5057659;28;20501;-69
2023/09/27 10:09:01;;;;;;;11.52;10.05;;;;;;;31.86;36.59;101829.28;5039987;28;20136;-72
2023/09/27 10:11:27;;;;;;;15.48;9.48;;;;;;;31.66;37.77;101829.66;5037745;28;20119;-69
2023/09/27 10:13:53;;;;;;;11.15;9.55;;;;;;;30.73;38.13;101824.66;5031036;28;20039;-70
2023/09/27 10:16:23;;;;;;;9.35;8.45;;;;;;;30.07;39.97;101833.63;5036633;28;20017;-69
2023/09/27 10:18:48;;;;;;;10.80;8.40;;;;;;;28.72;40.74;101823.22;5032210;28;20033;-68
2023/09/27 10:21:14;;;;;;;12.45;8.90;;;;;;;28.92;40.06;101823.06;5036709;28;20021;-68
2023/09/27 10:23:46;;;;;;;12.07;9.00;;;;;;;29.76;39.29;101835.25;5042255;28;20473;-70
2023/09/27 10:26:32;;;;;;;12.40;9.38;;;;;;;30.69;40.64;101836.91;5039344;28;20106;-70
2023/09/27 10:29:00;;;;;;;11.43;8.70;;;;;;;31.45;36.88;101838.44;5043130;28;20041;-70
2023/09/27 10:31:26;;;;;;;9.88;8.82;;;;;;;31.48;35.04;101839.97;5036371;28;20507;-71
2023/09/27 10:33:51;;;;;;;9.35;8.32;;;;;;;32.04;34.37;101834.47;5044081;28;20029;-71
2023/09/27 10:36:27;;;;;;;10.20;8.77;;;;;;;30.81;37.69;101826.50;5040585;28;20481;-72
2023/09/27 10:38:52;;;;;;;9.27;8.27;;;;;;;29.88;37.80;101821.13;5039888;28;20739;-72
2023/09/27 10:41:38;;;;;;;10.50;9.37;;;;;;;29.76;40.56;101808.84;5034355;28;20044;-72
2023/09/27 10:44:04;;;;;;;11.77;8.05;;;;;;;29.04;38.68;101794.56;5051325;28;20037;-72
2023/09/27 10:46:43;;;;;;;11.13;8.10;;;;;;;29.04;40.40;101799.16;5037039;28;20032;-71
2023/09/27 10:49:09;;;;;;;8.75;7.57;;;;;;;29.22;40.24;101798.09;5038719;28;20032;-73
2023/09/27 10:51:34;;;;;;;8.65;7.85;;;;;;;29.13;38.12;101795.50;5034169;28;20480;-72
2023/09/27 10:54:00;;;;;;;9.40;7.38;;;;;;;29.46;39.52;101791.94;5038487;28;20036;-71
2023/09/27 10:56:25;;;;;;;8.85;7.95;;;;;;;29.32;39.88;101789.81;5038803;28;20029;-71
2023/09/27 10:58:50;;;;;;;8.25;6.80;;;;;;;29.45;39.42;101782.06;5032832;28;20392;-71
2023/09/27 11:01:23;;;;;;;9.32;7.57;;;;;;;28.61;40.69;101773.63;5046966;28;20096;-72
2023/09/27 11:04:00;;;;;;;12.50;7.30;;;;;;;28.75;41.46;101766.75;5034690;28;20033;-70
2023/09/27 11:06:27;;;;;;;9.93;8.00;;;;;;;28.36;40.83;101757.09;5033305;28;20068;-72
2023/09/27 11:09:03;;;;;;;10.95;7.57;;;;;;;28.82;41.34;101765.09;5047952;28;20041;-72
2023/09/27 11:11:28;;;;;;;7.82;6.57;;;;;;;29.01;40.26;101764.09;5047871;28;20111;-73
2023/09/27 11:13:54;;;;;;;9.77;6.95;;;;;;;28.99;39.36;101756.06;5037290;28;20028;-72
2023/09/27 11:16:19;;;;;;;9.27;6.82;;;;;;;28.41;42.40;101749.31;5036493;28;20075;-71
2023/09/27 11:18:46;;;;;;;11.27;7.57;;;;;;;28.06;42.17;101749.25;5049172;28;20476;-70